sensor_id;sensor_type;location;lat;lon;timestamp;temperature;humidity
21115;DHT22;10715;48.546;9.896;2023-07-09T00:00:51;16.60;99.90
21115;DHT22;10715;48.546;9.896;2023-07-09T00:03:18;16.50;99.90
21115;DHT22;10715;48.546;9.896;2023-07-09T00:05:49;16.50;99.90
21115;DHT22;10715;48.546;9.896;2023-07-09T00:08:27;16.50;99.90
21115;DHT22;10715;48.546;9.896;2023-07-09T00:10:54;16.50;99.90
21115;DHT22;10715;48.546;9.896;2023-07-09T00:13:21;16.40;99.90
21115;DHT22;10715;48.546;9.896;2023-07-09T00:15:48;16.40;99.90
21115;DHT22;10715;48.546;9.896;2023-07-09T00:18:13;16.30;99.90
21115;DHT22;10715;48.546;9.896;2023-07-09T00:20:39;16.30;99.90
21115;DHT22;10715;48.546;9.896;2023-07-09T00:23:09;16.30;99.90
21115;DHT22;10715;48.546;9.896;2023-07-09T00:25:35;16.30;99.90
21115;DHT22;10715;48.546;9.896;2023-07-09T00:28:02;16.20;99.90
21115;DHT22;10715;48.546;9.896;2023-07-09T00:30:27;16.20;99.90
21115;DHT22;10715;48.546;9.896;2023-07-09T00:32:53;16.10;99.90
21115;DHT22;10715;48.546;9.896;2023-07-09T00:35:20;16.10;99.90
21115;DHT22;10715;48.546;9.896;2023-07-09T00:37:47;16.00;99.90
21115;DHT22;10715;48.546;9.896;2023-07-09T00:40:21;16.00;99.90
21115;DHT22;10715;48.546;9.896;2023-07-09T00:42:49;15.90;99.90
21115;DHT22;10715;48.546;9.896;2023-07-09T00:45:24;15.90;99.90
21115;DHT22;10715;48.546;9.896;2023-07-09T00:48:02;15.90;99.90
21115;DHT22;10715;48.546;9.896;2023-07-09T00:50:50;15.90;99.90
21115;DHT22;10715;48.546;9.896;2023-07-09T00:53:29;15.80;99.90
21115;DHT22;10715;48.546;9.896;2023-07-09T00:56:02;15.80;99.90
21115;DHT22;10715;48.546;9.896;2023-07-09T00:58:30;15.80;99.90
21115;DHT22;10715;48.546;9.896;2023-07-09T01:01:02;15.70;99.90
21115;DHT22;10715;48.546;9.896;2023-07-09T01:03:32;15.70;99.90
21115;DHT22;10715;48.546;9.896;2023-07-09T01:06:00;15.70;99.90
21115;DHT22;10715;48.546;9.896;2023-07-09T01:08:30;15.60;99.90
21115;DHT22;10715;48.546;9.896;2023-07-09T01:10:58;15.60;99.90
21115;DHT22;10715;48.546;9.896;2023-07-09T01:13:25;15.50;99.90
21115;DHT22;10715;48.546;9.896;2023-07-09T01:15:53;15.50;99.90
21115;DHT22;10715;48.546;9.896;2023-07-09T01:18:19;15.50;99.90
21115;DHT22;10715;48.546;9.896;2023-07-09T01:20:46;15.40;99.90
21115;DHT22;10715;48.546;9.896;2023-07-09T01:23:12;15.40;99.90
21115;DHT22;10715;48.546;9.896;2023-07-09T01:25:46;15.40;99.90
21115;DHT22;10715;48.546;9.896;2023-07-09T01:28:13;15.40;99.90
21115;DHT22;10715;48.546;9.896;2023-07-09T01:30:40;15.30;99.90
21115;DHT22;10715;48.546;9.896;2023-07-09T01:33:06;15.30;99.90
21115;DHT22;10715;48.546;9.896;2023-07-09T01:35:37;15.30;99.90
21115;DHT22;10715;48.546;9.896;2023-07-09T01:38:05;15.30;99.90
21115;DHT22;10715;48.546;9.896;2023-07-09T01:40:32;15.30;99.90
21115;DHT22;10715;48.546;9.896;2023-07-09T01:42:59;15.30;99.90
21115;DHT22;10715;48.546;9.896;2023-07-09T01:45:25;15.20;99.90
21115;DHT22;10715;48.546;9.896;2023-07-09T01:47:52;15.20;99.90
21115;DHT22;10715;48.546;9.896;2023-07-09T01:50:19;15.20;99.90
21115;DHT22;10715;48.546;9.896;2023-07-09T01:52:46;15.20;99.90
21115;DHT22;10715;48.546;9.896;2023-07-09T01:55:13;15.10;99.90
21115;DHT22;10715;48.546;9.896;2023-07-09T01:57:42;15.10;99.90
21115;DHT22;10715;48.546;9.896;2023-07-09T02:00:12;15.10;99.90
21115;DHT22;10715;48.546;9.896;2023-07-09T02:02:42;15.00;99.90
21115;DHT22;10715;48.546;9.896;2023-07-09T02:05:09;15.00;99.90
21115;DHT22;10715;48.546;9.896;2023-07-09T02:07:35;15.00;99.90
21115;DHT22;10715;48.546;9.896;2023-07-09T02:10:01;14.90;99.90
21115;DHT22;10715;48.546;9.896;2023-07-09T02:12:28;14.90;99.90
21115;DHT22;10715;48.546;9.896;2023-07-09T02:14:53;14.80;99.90
21115;DHT22;10715;48.546;9.896;2023-07-09T02:17:19;14.80;99.90
21115;DHT22;10715;48.546;9.896;2023-07-09T02:19:45;14.80;99.90
21115;DHT22;10715;48.546;9.896;2023-07-09T02:22:11;14.80;99.90
21115;DHT22;10715;48.546;9.896;2023-07-09T02:24:38;14.70;99.90
21115;DHT22;10715;48.546;9.896;2023-07-09T02:27:06;14.70;99.90
21115;DHT22;10715;48.546;9.896;2023-07-09T02:29:33;14.70;99.90
21115;DHT22;10715;48.546;9.896;2023-07-09T02:32:00;14.60;99.90
21115;DHT22;10715;48.546;9.896;2023-07-09T02:34:27;14.60;99.90
21115;DHT22;10715;48.546;9.896;2023-07-09T02:36:54;14.60;99.90
21115;DHT22;10715;48.546;9.896;2023-07-09T02:39:21;14.60;99.90
21115;DHT22;10715;48.546;9.896;2023-07-09T02:41:47;14.60;99.90
21115;DHT22;10715;48.546;9.896;2023-07-09T02:44:13;14.50;99.90
21115;DHT22;10715;48.546;9.896;2023-07-09T02:46:39;14.50;99.90
21115;DHT22;10715;48.546;9.896;2023-07-09T02:49:06;14.50;99.90
21115;DHT22;10715;48.546;9.896;2023-07-09T02:51:32;14.50;99.90
21115;DHT22;10715;48.546;9.896;2023-07-09T02:54:00;14.40;99.90
21115;DHT22;10715;48.546;9.896;2023-07-09T02:56:26;14.40;99.90
21115;DHT22;10715;48.546;9.896;2023-07-09T02:58:52;14.40;99.90
21115;DHT22;10715;48.546;9.896;2023-07-09T03:01:18;14.40;99.90
21115;DHT22;10715;48.546;9.896;2023-07-09T03:03:56;14.40;99.90
21115;DHT22;10715;48.546;9.896;2023-07-09T03:06:23;14.30;99.90
21115;DHT22;10715;48.546;9.896;2023-07-09T03:08:50;14.30;99.90
21115;DHT22;10715;48.546;9.896;2023-07-09T03:11:17;14.30;99.90
21115;DHT22;10715;48.546;9.896;2023-07-09T03:13:43;14.20;99.90
21115;DHT22;10715;48.546;9.896;2023-07-09T03:16:09;14.20;99.90
21115;DHT22;10715;48.546;9.896;2023-07-09T03:18:34;14.30;99.90
21115;DHT22;10715;48.546;9.896;2023-07-09T03:21:00;14.30;99.90
21115;DHT22;10715;48.546;9.896;2023-07-09T03:23:26;14.30;99.90
21115;DHT22;10715;48.546;9.896;2023-07-09T03:25:52;14.20;99.90
21115;DHT22;10715;48.546;9.896;2023-07-09T03:28:18;14.20;99.90
21115;DHT22;10715;48.546;9.896;2023-07-09T03:30:46;14.20;99.90
21115;DHT22;10715;48.546;9.896;2023-07-09T03:33:13;14.10;99.90
21115;DHT22;10715;48.546;9.896;2023-07-09T03:35:39;14.10;99.90
21115;DHT22;10715;48.546;9.896;2023-07-09T03:38:07;14.00;99.90
21115;DHT22;10715;48.546;9.896;2023-07-09T03:40:32;14.00;99.90
21115;DHT22;10715;48.546;9.896;2023-07-09T03:42:58;14.00;99.90
21115;DHT22;10715;48.546;9.896;2023-07-09T03:45:24;14.00;99.90
21115;DHT22;10715;48.546;9.896;2023-07-09T03:47:50;14.00;99.90
21115;DHT22;10715;48.546;9.896;2023-07-09T03:50:16;13.90;99.90
21115;DHT22;10715;48.546;9.896;2023-07-09T03:52:41;14.00;99.90
21115;DHT22;10715;48.546;9.896;2023-07-09T03:55:08;14.00;99.90
21115;DHT22;10715;48.546;9.896;2023-07-09T03:57:34;14.00;99.90
21115;DHT22;10715;48.546;9.896;2023-07-09T04:00:02;14.00;99.90
21115;DHT22;10715;48.546;9.896;2023-07-09T04:02:28;14.00;99.90
21115;DHT22;10715;48.546;9.896;2023-07-09T04:04:53;14.00;99.90
21115;DHT22;10715;48.546;9.896;2023-07-09T04:07:19;14.00;99.90
21115;DHT22;10715;48.546;9.896;2023-07-09T04:09:45;14.00;99.90
21115;DHT22;10715;48.546;9.896;2023-07-09T04:12:11;14.00;99.90
21115;DHT22;10715;48.546;9.896;2023-07-09T04:14:36;13.90;99.90
21115;DHT22;10715;48.546;9.896;2023-07-09T04:17:02;13.90;99.90
21115;DHT22;10715;48.546;9.896;2023-07-09T04:19:28;13.90;99.90
21115;DHT22;10715;48.546;9.896;2023-07-09T04:21:54;13.90;99.90
21115;DHT22;10715;48.546;9.896;2023-07-09T04:24:20;14.00;99.90
21115;DHT22;10715;48.546;9.896;2023-07-09T04:26:46;14.00;99.90
21115;DHT22;10715;48.546;9.896;2023-07-09T04:29:12;14.00;99.90
21115;DHT22;10715;48.546;9.896;2023-07-09T04:31:40;14.00;99.90
21115;DHT22;10715;48.546;9.896;2023-07-09T04:34:05;14.10;99.90
21115;DHT22;10715;48.546;9.896;2023-07-09T04:36:32;14.10;99.90
21115;DHT22;10715;48.546;9.896;2023-07-09T04:38:58;14.10;99.90
21115;DHT22;10715;48.546;9.896;2023-07-09T04:41:24;14.10;99.90
21115;DHT22;10715;48.546;9.896;2023-07-09T04:43:50;14.20;99.90
21115;DHT22;10715;48.546;9.896;2023-07-09T04:46:16;14.20;99.90
21115;DHT22;10715;48.546;9.896;2023-07-09T04:48:41;14.20;99.90
21115;DHT22;10715;48.546;9.896;2023-07-09T04:51:07;14.20;99.90
21115;DHT22;10715;48.546;9.896;2023-07-09T04:53:33;14.30;99.90
21115;DHT22;10715;48.546;9.896;2023-07-09T04:55:59;14.30;99.90
21115;DHT22;10715;48.546;9.896;2023-07-09T04:58:24;14.30;99.90
21115;DHT22;10715;48.546;9.896;2023-07-09T05:00:50;14.30;99.90
21115;DHT22;10715;48.546;9.896;2023-07-09T05:03:18;14.40;99.90
21115;DHT22;10715;48.546;9.896;2023-07-09T05:05:45;14.40;99.90
21115;DHT22;10715;48.546;9.896;2023-07-09T05:08:12;14.50;99.90
21115;DHT22;10715;48.546;9.896;2023-07-09T05:10:45;14.50;99.90
21115;DHT22;10715;48.546;9.896;2023-07-09T05:13:12;14.60;99.90
21115;DHT22;10715;48.546;9.896;2023-07-09T05:15:43;14.60;99.90
21115;DHT22;10715;48.546;9.896;2023-07-09T05:18:11;14.70;99.90
21115;DHT22;10715;48.546;9.896;2023-07-09T05:20:36;14.80;99.90
21115;DHT22;10715;48.546;9.896;2023-07-09T05:23:02;14.80;99.90
21115;DHT22;10715;48.546;9.896;2023-07-09T05:25:28;14.90;99.90
21115;DHT22;10715;48.546;9.896;2023-07-09T05:27:54;15.00;99.90
21115;DHT22;10715;48.546;9.896;2023-07-09T05:30:20;15.10;99.90
21115;DHT22;10715;48.546;9.896;2023-07-09T05:32:46;15.20;99.90
21115;DHT22;10715;48.546;9.896;2023-07-09T05:35:13;15.30;99.90
21115;DHT22;10715;48.546;9.896;2023-07-09T05:37:39;15.50;99.90
21115;DHT22;10715;48.546;9.896;2023-07-09T05:40:06;15.60;99.90
21115;DHT22;10715;48.546;9.896;2023-07-09T05:42:32;15.80;99.90
21115;DHT22;10715;48.546;9.896;2023-07-09T05:44:58;15.90;99.90
21115;DHT22;10715;48.546;9.896;2023-07-09T05:47:25;16.20;99.90
21115;DHT22;10715;48.546;9.896;2023-07-09T05:49:51;16.40;99.90
21115;DHT22;10715;48.546;9.896;2023-07-09T05:52:18;16.60;99.90
21115;DHT22;10715;48.546;9.896;2023-07-09T05:54:44;16.80;99.90
21115;DHT22;10715;48.546;9.896;2023-07-09T05:57:11;17.00;99.90
21115;DHT22;10715;48.546;9.896;2023-07-09T05:59:36;17.30;99.90
21115;DHT22;10715;48.546;9.896;2023-07-09T06:02:03;17.40;99.90
21115;DHT22;10715;48.546;9.896;2023-07-09T06:04:30;17.60;99.90
21115;DHT22;10715;48.546;9.896;2023-07-09T06:06:58;17.80;99.90
21115;DHT22;10715;48.546;9.896;2023-07-09T06:09:24;18.10;99.90
21115;DHT22;10715;48.546;9.896;2023-07-09T06:11:50;18.40;99.90
21115;DHT22;10715;48.546;9.896;2023-07-09T06:14:16;18.70;99.90
21115;DHT22;10715;48.546;9.896;2023-07-09T06:16:43;18.90;99.90
21115;DHT22;10715;48.546;9.896;2023-07-09T06:19:09;19.10;99.90
21115;DHT22;10715;48.546;9.896;2023-07-09T06:21:35;19.20;99.90
21115;DHT22;10715;48.546;9.896;2023-07-09T06:24:01;19.50;99.90
21115;DHT22;10715;48.546;9.896;2023-07-09T06:26:27;19.90;99.90
21115;DHT22;10715;48.546;9.896;2023-07-09T06:28:52;20.30;99.90
21115;DHT22;10715;48.546;9.896;2023-07-09T06:31:18;20.70;99.90
21115;DHT22;10715;48.546;9.896;2023-07-09T06:33:47;21.10;99.90
21115;DHT22;10715;48.546;9.896;2023-07-09T06:36:12;21.30;99.90
21115;DHT22;10715;48.546;9.896;2023-07-09T06:38:38;21.50;99.90
21115;DHT22;10715;48.546;9.896;2023-07-09T06:41:04;21.70;99.90
21115;DHT22;10715;48.546;9.896;2023-07-09T06:43:30;21.90;99.90
21115;DHT22;10715;48.546;9.896;2023-07-09T06:46:01;22.10;99.90
21115;DHT22;10715;48.546;9.896;2023-07-09T06:48:28;22.20;99.90
21115;DHT22;10715;48.546;9.896;2023-07-09T06:50:55;22.30;99.90
21115;DHT22;10715;48.546;9.896;2023-07-09T06:53:22;22.40;99.90
21115;DHT22;10715;48.546;9.896;2023-07-09T06:55:48;22.40;99.90
21115;DHT22;10715;48.546;9.896;2023-07-09T06:58:16;22.50;99.90
21115;DHT22;10715;48.546;9.896;2023-07-09T07:00:45;22.70;99.90
21115;DHT22;10715;48.546;9.896;2023-07-09T07:03:11;22.90;99.90
21115;DHT22;10715;48.546;9.896;2023-07-09T07:05:37;23.00;99.90
21115;DHT22;10715;48.546;9.896;2023-07-09T07:08:07;23.10;99.90
21115;DHT22;10715;48.546;9.896;2023-07-09T07:10:33;23.40;99.90
21115;DHT22;10715;48.546;9.896;2023-07-09T07:12:59;23.70;99.90
21115;DHT22;10715;48.546;9.896;2023-07-09T07:15:24;24.10;99.90
21115;DHT22;10715;48.546;9.896;2023-07-09T07:17:50;24.40;99.90
21115;DHT22;10715;48.546;9.896;2023-07-09T07:20:16;24.40;99.90
21115;DHT22;10715;48.546;9.896;2023-07-09T07:22:42;24.60;99.90
21115;DHT22;10715;48.546;9.896;2023-07-09T07:25:08;24.80;99.90
21115;DHT22;10715;48.546;9.896;2023-07-09T07:27:35;24.80;99.90
21115;DHT22;10715;48.546;9.896;2023-07-09T07:30:02;25.00;99.90
21115;DHT22;10715;48.546;9.896;2023-07-09T07:32:27;25.10;99.90
21115;DHT22;10715;48.546;9.896;2023-07-09T07:34:53;25.30;99.90
21115;DHT22;10715;48.546;9.896;2023-07-09T07:37:20;25.50;99.90
21115;DHT22;10715;48.546;9.896;2023-07-09T07:39:47;25.70;99.90
21115;DHT22;10715;48.546;9.896;2023-07-09T07:42:13;25.90;99.90
21115;DHT22;10715;48.546;9.896;2023-07-09T07:44:39;26.00;99.90
21115;DHT22;10715;48.546;9.896;2023-07-09T07:47:05;26.00;99.90
21115;DHT22;10715;48.546;9.896;2023-07-09T07:49:31;26.00;99.90
21115;DHT22;10715;48.546;9.896;2023-07-09T07:51:57;26.00;99.90
21115;DHT22;10715;48.546;9.896;2023-07-09T07:54:24;25.90;99.90
21115;DHT22;10715;48.546;9.896;2023-07-09T07:56:50;26.00;99.90
21115;DHT22;10715;48.546;9.896;2023-07-09T07:59:17;26.00;99.90
21115;DHT22;10715;48.546;9.896;2023-07-09T08:01:43;26.30;99.90
21115;DHT22;10715;48.546;9.896;2023-07-09T08:04:08;26.40;99.90
21115;DHT22;10715;48.546;9.896;2023-07-09T08:06:34;26.50;99.90
21115;DHT22;10715;48.546;9.896;2023-07-09T08:09:00;26.60;99.90
21115;DHT22;10715;48.546;9.896;2023-07-09T08:11:26;26.70;99.90
21115;DHT22;10715;48.546;9.896;2023-07-09T08:13:53;26.90;99.90
21115;DHT22;10715;48.546;9.896;2023-07-09T08:16:19;27.10;99.90
21115;DHT22;10715;48.546;9.896;2023-07-09T08:18:45;27.30;99.90
21115;DHT22;10715;48.546;9.896;2023-07-09T08:21:11;27.40;99.90
21115;DHT22;10715;48.546;9.896;2023-07-09T08:23:36;27.40;99.90
21115;DHT22;10715;48.546;9.896;2023-07-09T08:26:03;27.50;99.90
21115;DHT22;10715;48.546;9.896;2023-07-09T08:28:30;27.60;99.90
21115;DHT22;10715;48.546;9.896;2023-07-09T08:30:56;27.70;99.90
21115;DHT22;10715;48.546;9.896;2023-07-09T08:33:23;27.70;99.90
21115;DHT22;10715;48.546;9.896;2023-07-09T08:35:50;27.70;99.90
21115;DHT22;10715;48.546;9.896;2023-07-09T08:38:16;27.70;99.90
21115;DHT22;10715;48.546;9.896;2023-07-09T08:40:54;27.70;99.90
21115;DHT22;10715;48.546;9.896;2023-07-09T08:48:58;28.10;99.40
21115;DHT22;10715;48.546;9.896;2023-07-09T08:51:32;28.10;99.60
21115;DHT22;10715;48.546;9.896;2023-07-09T08:54:00;28.20;99.60
21115;DHT22;10715;48.546;9.896;2023-07-09T08:56:28;28.20;99.40
21115;DHT22;10715;48.546;9.896;2023-07-09T08:58:56;28.20;99.00
21115;DHT22;10715;48.546;9.896;2023-07-09T09:01:38;28.20;98.10
21115;DHT22;10715;48.546;9.896;2023-07-09T09:04:15;28.20;97.50
21115;DHT22;10715;48.546;9.896;2023-07-09T09:06:50;28.30;96.50
21115;DHT22;10715;48.546;9.896;2023-07-09T09:10:40;28.20;97.40
21115;DHT22;10715;48.546;9.896;2023-07-09T09:13:14;28.20;97.80
21115;DHT22;10715;48.546;9.896;2023-07-09T09:15:43;28.20;95.50
21115;DHT22;10715;48.546;9.896;2023-07-09T09:18:27;28.20;95.90
21115;DHT22;10715;48.546;9.896;2023-07-09T09:21:21;28.20;97.00
21115;DHT22;10715;48.546;9.896;2023-07-09T09:23:57;28.20;95.10
21115;DHT22;10715;48.546;9.896;2023-07-09T09:26:32;28.20;94.30
21115;DHT22;10715;48.546;9.896;2023-07-09T09:28:59;28.40;95.10
21115;DHT22;10715;48.546;9.896;2023-07-09T09:31:27;28.40;95.20
21115;DHT22;10715;48.546;9.896;2023-07-09T09:33:53;28.50;94.50
21115;DHT22;10715;48.546;9.896;2023-07-09T09:36:24;28.50;95.90
21115;DHT22;10715;48.546;9.896;2023-07-09T09:38:51;28.50;94.30
21115;DHT22;10715;48.546;9.896;2023-07-09T09:41:23;28.50;93.70
21115;DHT22;10715;48.546;9.896;2023-07-09T09:43:52;28.50;91.70
21115;DHT22;10715;48.546;9.896;2023-07-09T09:46:23;28.60;92.40
21115;DHT22;10715;48.546;9.896;2023-07-09T09:48:51;28.60;92.10
21115;DHT22;10715;48.546;9.896;2023-07-09T09:51:19;28.60;92.50
21115;DHT22;10715;48.546;9.896;2023-07-09T09:53:50;28.70;91.90
21115;DHT22;10715;48.546;9.896;2023-07-09T09:56:36;28.70;92.40
21115;DHT22;10715;48.546;9.896;2023-07-09T09:59:03;28.80;92.00
21115;DHT22;10715;48.546;9.896;2023-07-09T10:01:32;28.80;91.20
21115;DHT22;10715;48.546;9.896;2023-07-09T10:04:01;28.90;90.20
21115;DHT22;10715;48.546;9.896;2023-07-09T10:06:36;28.90;90.00
21115;DHT22;10715;48.546;9.896;2023-07-09T10:11:47;29.00;89.90
21115;DHT22;10715;48.546;9.896;2023-07-09T10:14:26;29.00;88.00
21115;DHT22;10715;48.546;9.896;2023-07-09T10:17:05;29.00;88.70
21115;DHT22;10715;48.546;9.896;2023-07-09T10:20:15;29.00;89.20
21115;DHT22;10715;48.546;9.896;2023-07-09T10:22:28;29.10;87.30
21115;DHT22;10715;48.546;9.896;2023-07-09T10:39:22;29.20;85.20
21115;DHT22;10715;48.546;9.896;2023-07-09T10:41:50;29.30;85.80
21115;DHT22;10715;48.546;9.896;2023-07-09T10:44:22;29.40;85.10
21115;DHT22;10715;48.546;9.896;2023-07-09T10:46:58;29.40;84.10
21115;DHT22;10715;48.546;9.896;2023-07-09T10:49:31;29.50;84.10
21115;DHT22;10715;48.546;9.896;2023-07-09T10:52:10;29.50;81.50
21115;DHT22;10715;48.546;9.896;2023-07-09T10:54:42;29.50;81.80
21115;DHT22;10715;48.546;9.896;2023-07-09T10:57:19;29.50;82.00
21115;DHT22;10715;48.546;9.896;2023-07-09T10:59:48;29.50;83.30
21115;DHT22;10715;48.546;9.896;2023-07-09T11:02:33;29.50;81.00
21115;DHT22;10715;48.546;9.896;2023-07-09T11:05:02;29.50;81.60
21115;DHT22;10715;48.546;9.896;2023-07-09T11:07:33;29.50;82.90
21115;DHT22;10715;48.546;9.896;2023-07-09T11:10:02;29.60;81.30
21115;DHT22;10715;48.546;9.896;2023-07-09T11:12:36;29.70;79.30
21115;DHT22;10715;48.546;9.896;2023-07-09T11:15:13;29.70;79.50
21115;DHT22;10715;48.546;9.896;2023-07-09T11:17:44;29.70;80.00
21115;DHT22;10715;48.546;9.896;2023-07-09T11:20:24;29.70;79.60
21115;DHT22;10715;48.546;9.896;2023-07-09T11:23:04;29.70;79.70
21115;DHT22;10715;48.546;9.896;2023-07-09T11:26:01;29.70;81.70
21115;DHT22;10715;48.546;9.896;2023-07-09T11:28:38;29.70;82.90
21115;DHT22;10715;48.546;9.896;2023-07-09T11:31:14;29.70;82.90
21115;DHT22;10715;48.546;9.896;2023-07-09T11:33:49;29.80;81.70
21115;DHT22;10715;48.546;9.896;2023-07-09T11:36:27;29.80;79.10
21115;DHT22;10715;48.546;9.896;2023-07-09T11:38:53;29.90;79.20
21115;DHT22;10715;48.546;9.896;2023-07-09T11:41:26;29.90;77.80
21115;DHT22;10715;48.546;9.896;2023-07-09T11:44:03;29.90;77.10
21115;DHT22;10715;48.546;9.896;2023-07-09T11:46:29;29.90;79.60
21115;DHT22;10715;48.546;9.896;2023-07-09T11:48:57;29.90;78.60
21115;DHT22;10715;48.546;9.896;2023-07-09T11:51:29;30.00;77.10
21115;DHT22;10715;48.546;9.896;2023-07-09T11:54:00;30.10;77.80
21115;DHT22;10715;48.546;9.896;2023-07-09T11:56:26;30.10;77.20
21115;DHT22;10715;48.546;9.896;2023-07-09T11:58:55;30.10;75.50
21115;DHT22;10715;48.546;9.896;2023-07-09T12:01:24;30.10;76.90
21115;DHT22;10715;48.546;9.896;2023-07-09T12:03:51;30.00;76.10
21115;DHT22;10715;48.546;9.896;2023-07-09T12:06:28;30.00;75.90
21115;DHT22;10715;48.546;9.896;2023-07-09T12:08:55;29.90;77.30
21115;DHT22;10715;48.546;9.896;2023-07-09T12:11:32;29.90;75.30
21115;DHT22;10715;48.546;9.896;2023-07-09T12:14:12;29.90;73.50
21115;DHT22;10715;48.546;9.896;2023-07-09T12:16:41;29.90;70.40
21115;DHT22;10715;48.546;9.896;2023-07-09T12:19:09;29.90;73.00
21115;DHT22;10715;48.546;9.896;2023-07-09T12:21:38;29.90;73.00
21115;DHT22;10715;48.546;9.896;2023-07-09T12:24:35;29.90;73.30
21115;DHT22;10715;48.546;9.896;2023-07-09T12:27:14;30.00;71.70
21115;DHT22;10715;48.546;9.896;2023-07-09T12:29:42;30.00;74.30
21115;DHT22;10715;48.546;9.896;2023-07-09T12:32:14;30.00;72.90
21115;DHT22;10715;48.546;9.896;2023-07-09T12:34:40;30.00;73.40
21115;DHT22;10715;48.546;9.896;2023-07-09T12:37:12;30.00;72.30
21115;DHT22;10715;48.546;9.896;2023-07-09T12:39:38;30.00;71.80
21115;DHT22;10715;48.546;9.896;2023-07-09T12:42:05;30.00;70.50
21115;DHT22;10715;48.546;9.896;2023-07-09T12:44:33;30.00;71.90
21115;DHT22;10715;48.546;9.896;2023-07-09T12:47:01;30.00;71.40
21115;DHT22;10715;48.546;9.896;2023-07-09T12:49:30;30.00;73.60
21115;DHT22;10715;48.546;9.896;2023-07-09T12:51:58;30.00;73.30
21115;DHT22;10715;48.546;9.896;2023-07-09T12:54:28;30.00;71.60
21115;DHT22;10715;48.546;9.896;2023-07-09T12:56:56;30.10;70.20
21115;DHT22;10715;48.546;9.896;2023-07-09T13:01:56;30.10;69.70
21115;DHT22;10715;48.546;9.896;2023-07-09T13:04:36;30.10;71.40
21115;DHT22;10715;48.546;9.896;2023-07-09T13:07:03;30.10;69.30
21115;DHT22;10715;48.546;9.896;2023-07-09T13:09:29;30.10;70.30
21115;DHT22;10715;48.546;9.896;2023-07-09T13:11:56;30.10;71.50
21115;DHT22;10715;48.546;9.896;2023-07-09T13:14:25;30.10;69.50
21115;DHT22;10715;48.546;9.896;2023-07-09T13:16:51;30.10;70.30
21115;DHT22;10715;48.546;9.896;2023-07-09T13:19:17;30.20;70.70
21115;DHT22;10715;48.546;9.896;2023-07-09T13:21:44;30.20;70.60
21115;DHT22;10715;48.546;9.896;2023-07-09T13:24:16;30.20;69.40
21115;DHT22;10715;48.546;9.896;2023-07-09T13:26:42;30.20;69.40
21115;DHT22;10715;48.546;9.896;2023-07-09T13:29:16;30.20;68.00
21115;DHT22;10715;48.546;9.896;2023-07-09T13:31:44;30.20;68.00
21115;DHT22;10715;48.546;9.896;2023-07-09T13:34:33;30.30;68.10
21115;DHT22;10715;48.546;9.896;2023-07-09T13:36:59;30.30;68.20
21115;DHT22;10715;48.546;9.896;2023-07-09T13:39:25;30.30;67.20
21115;DHT22;10715;48.546;9.896;2023-07-09T13:41:52;30.30;67.00
21115;DHT22;10715;48.546;9.896;2023-07-09T13:44:24;30.30;66.40
21115;DHT22;10715;48.546;9.896;2023-07-09T13:46:51;30.40;65.70
21115;DHT22;10715;48.546;9.896;2023-07-09T13:49:19;30.40;64.80
21115;DHT22;10715;48.546;9.896;2023-07-09T13:51:50;30.30;65.20
21115;DHT22;10715;48.546;9.896;2023-07-09T13:54:27;30.30;66.30
21115;DHT22;10715;48.546;9.896;2023-07-09T13:56:53;30.30;64.50
21115;DHT22;10715;48.546;9.896;2023-07-09T13:59:22;30.30;66.00
21115;DHT22;10715;48.546;9.896;2023-07-09T14:01:53;30.30;63.20
21115;DHT22;10715;48.546;9.896;2023-07-09T14:04:20;30.30;64.70
21115;DHT22;10715;48.546;9.896;2023-07-09T14:06:47;30.40;65.60
21115;DHT22;10715;48.546;9.896;2023-07-09T14:09:14;30.50;65.20
21115;DHT22;10715;48.546;9.896;2023-07-09T14:11:51;30.50;65.00
21115;DHT22;10715;48.546;9.896;2023-07-09T14:14:26;30.50;67.10
21115;DHT22;10715;48.546;9.896;2023-07-09T14:16:53;30.50;66.80
21115;DHT22;10715;48.546;9.896;2023-07-09T14:19:21;30.50;67.80
21115;DHT22;10715;48.546;9.896;2023-07-09T14:21:48;30.50;67.40
21115;DHT22;10715;48.546;9.896;2023-07-09T14:24:23;30.50;66.60
21115;DHT22;10715;48.546;9.896;2023-07-09T14:26:53;30.60;67.20
21115;DHT22;10715;48.546;9.896;2023-07-09T14:29:18;30.50;68.00
21115;DHT22;10715;48.546;9.896;2023-07-09T14:31:46;30.50;66.90
21115;DHT22;10715;48.546;9.896;2023-07-09T14:34:27;30.50;68.30
21115;DHT22;10715;48.546;9.896;2023-07-09T14:36:56;30.50;69.20
21115;DHT22;10715;48.546;9.896;2023-07-09T14:39:23;30.60;69.80
21115;DHT22;10715;48.546;9.896;2023-07-09T14:41:50;30.70;67.90
21115;DHT22;10715;48.546;9.896;2023-07-09T14:44:21;30.70;66.30
21115;DHT22;10715;48.546;9.896;2023-07-09T14:46:48;30.80;64.30
21115;DHT22;10715;48.546;9.896;2023-07-09T14:49:21;30.80;63.90
21115;DHT22;10715;48.546;9.896;2023-07-09T14:51:48;30.80;63.20
21115;DHT22;10715;48.546;9.896;2023-07-09T14:56:49;30.70;60.50
21115;DHT22;10715;48.546;9.896;2023-07-09T14:59:15;30.70;62.30
21115;DHT22;10715;48.546;9.896;2023-07-09T15:01:41;30.70;62.30
21115;DHT22;10715;48.546;9.896;2023-07-09T15:06:51;30.70;63.30
21115;DHT22;10715;48.546;9.896;2023-07-09T15:09:20;30.70;65.30
21115;DHT22;10715;48.546;9.896;2023-07-09T15:11:49;30.70;63.30
21115;DHT22;10715;48.546;9.896;2023-07-09T15:14:16;30.70;63.80
21115;DHT22;10715;48.546;9.896;2023-07-09T15:16:42;30.70;64.20
21115;DHT22;10715;48.546;9.896;2023-07-09T15:19:28;30.70;63.80
21115;DHT22;10715;48.546;9.896;2023-07-09T15:21:54;30.80;62.50
21115;DHT22;10715;48.546;9.896;2023-07-09T15:24:29;30.80;62.50
21115;DHT22;10715;48.546;9.896;2023-07-09T15:26:56;30.80;64.20
21115;DHT22;10715;48.546;9.896;2023-07-09T15:29:23;30.80;63.90
21115;DHT22;10715;48.546;9.896;2023-07-09T15:31:49;30.80;64.40
21115;DHT22;10715;48.546;9.896;2023-07-09T15:34:15;30.80;63.40
21115;DHT22;10715;48.546;9.896;2023-07-09T15:36:47;30.80;63.20
21115;DHT22;10715;48.546;9.896;2023-07-09T15:39:15;30.70;63.20
21115;DHT22;10715;48.546;9.896;2023-07-09T15:41:40;30.70;64.00
21115;DHT22;10715;48.546;9.896;2023-07-09T15:44:10;30.70;63.60
21115;DHT22;10715;48.546;9.896;2023-07-09T15:46:42;30.70;63.40
21115;DHT22;10715;48.546;9.896;2023-07-09T15:49:13;30.80;62.20
21115;DHT22;10715;48.546;9.896;2023-07-09T15:51:39;30.80;62.60
21115;DHT22;10715;48.546;9.896;2023-07-09T15:56:38;30.80;64.40
21115;DHT22;10715;48.546;9.896;2023-07-09T15:59:04;30.80;62.70
21115;DHT22;10715;48.546;9.896;2023-07-09T16:01:30;30.80;62.60
21115;DHT22;10715;48.546;9.896;2023-07-09T16:04:00;30.80;62.70
21115;DHT22;10715;48.546;9.896;2023-07-09T16:06:27;30.80;62.60
21115;DHT22;10715;48.546;9.896;2023-07-09T16:08:53;30.80;61.30
21115;DHT22;10715;48.546;9.896;2023-07-09T16:11:22;30.70;61.90
21115;DHT22;10715;48.546;9.896;2023-07-09T16:13:49;30.70;61.10